Time;durP1;ratioP1;P1;durP2;ratioP2;P2;SDS_P1;SDS_P2;PMS_P1;PMS_P2;Temp;Humidity;BMP_temperature;BMP_pressure;BME280_temperature;BME280_humidity;BME280_pressure;Samples;Min_cycle;Max_cycle;Signal;HPM_P1;HPM_P2
2023/07/09 00:01:50;;;;;;;9.43;6.90;;;21.60;99.00;;;;;;5063708;28;20471;-78
2023/07/09 00:04:17;;;;;;;6.73;6.13;;;21.60;99.00;;;;;;5063754;28;20581;-75
2023/07/09 00:06:43;;;;;;;7.20;6.50;;;21.60;99.00;;;;;;5063393;28;20783;-75
2023/07/09 00:09:20;;;;;;;7.00;6.40;;;21.50;99.00;;;;;;5063567;28;20517;-75
2023/07/09 00:11:46;;;;;;;10.03;5.87;;;21.50;99.10;;;;;;5044513;28;20432;-78
2023/07/09 00:14:15;;;;;;;14.37;6.93;;;21.40;99.20;;;;;;5045141;28;20799;-76
2023/07/09 00:16:43;;;;;;;11.60;6.40;;;21.40;99.20;;;;;;5045110;28;20461;-76
2023/07/09 00:19:20;;;;;;;12.20;6.10;;;21.30;99.40;;;;;;5044989;28;20445;-76
2023/07/09 00:21:52;;;;;;;8.07;6.70;;;21.20;99.50;;;;;;5064765;28;20421;-75
2023/07/09 00:24:18;;;;;;;7.87;6.40;;;21.20;99.60;;;;;;5047319;28;20988;-75
2023/07/09 00:26:46;;;;;;;7.00;6.00;;;21.20;99.60;;;;;;5046633;28;20687;-78
2023/07/09 00:29:12;;;;;;;12.23;6.47;;;21.10;99.60;;;;;;5065063;28;20413;-78
2023/07/09 00:31:40;;;;;;;9.73;6.90;;;21.10;99.70;;;;;;5046734;28;20452;-75
2023/07/09 00:34:08;;;;;;;7.70;6.90;;;21.00;99.80;;;;;;5047002;28;20426;-78
2023/07/09 00:36:34;;;;;;;7.50;6.70;;;21.00;99.90;;;;;;5064652;28;20461;-78
2023/07/09 00:39:04;;;;;;;7.83;6.80;;;21.00;99.90;;;;;;5046812;28;20568;-76
2023/07/09 00:41:36;;;;;;;9.63;6.40;;;21.00;99.90;;;;;;5046149;28;20460;-78
2023/07/09 00:44:20;;;;;;;10.63;6.67;;;21.00;99.90;;;;;;5064753;28;20401;-78
2023/07/09 00:46:46;;;;;;;10.30;7.07;;;21.00;99.90;;;;;;5046688;28;20432;-79
2023/07/09 00:49:15;;;;;;;8.47;6.57;;;20.90;99.90;;;;;;5046587;28;20422;-76
2023/07/09 00:51:45;;;;;;;10.47;6.70;;;20.90;99.90;;;;;;5046473;28;20188;-75
2023/07/09 00:54:30;;;;;;;7.97;6.57;;;20.80;99.90;;;;;;5066001;28;20465;-78
2023/07/09 00:57:00;;;;;;;8.13;6.00;;;20.70;99.90;;;;;;5050422;28;20469;-78
2023/07/09 00:59:29;;;;;;;9.67;7.23;;;20.70;99.90;;;;;;5050315;28;20829;-75
2023/07/09 01:01:57;;;;;;;10.27;6.60;;;20.60;99.90;;;;;;5068371;28;20797;-75
2023/07/09 01:04:24;;;;;;;6.87;6.30;;;20.60;99.90;;;;;;5049950;28;20461;-75
2023/07/09 01:06:54;;;;;;;13.70;6.37;;;20.70;99.90;;;;;;5068094;28;20441;-76
2023/07/09 01:09:22;;;;;;;8.43;6.10;;;20.70;99.90;;;;;;5067940;28;20678;-76
2023/07/09 01:11:47;;;;;;;9.60;6.43;;;20.70;99.90;;;;;;5068117;28;20520;-75
2023/07/09 01:14:21;;;;;;;9.03;6.87;;;20.70;99.90;;;;;;5067209;28;20404;-75
2023/07/09 01:16:57;;;;;;;7.20;6.50;;;20.70;99.90;;;;;;5067956;28;20212;-78
2023/07/09 01:19:28;;;;;;;10.27;6.10;;;20.70;99.90;;;;;;5068102;28;20609;-78
2023/07/09 01:21:58;;;;;;;9.03;7.00;;;20.70;99.90;;;;;;5049566;28;20440;-76
2023/07/09 01:24:55;;;;;;;8.20;6.60;;;20.70;99.90;;;;;;5067987;28;20397;-78
2023/07/09 01:27:28;;;;;;;8.40;7.27;;;20.60;99.90;;;;;;5050021;28;20451;-76
2023/07/09 01:29:55;;;;;;;9.67;6.70;;;20.60;99.90;;;;;;5049516;28;21064;-76
2023/07/09 01:32:22;;;;;;;7.57;6.70;;;20.50;99.90;;;;;;5049871;28;20781;-78
2023/07/09 01:34:50;;;;;;;8.73;6.83;;;20.50;99.90;;;;;;5049070;28;20437;-76
2023/07/09 01:37:19;;;;;;;9.47;7.53;;;20.50;99.90;;;;;;5049791;28;20573;-75
2023/07/09 01:39:45;;;;;;;12.67;6.40;;;20.50;99.90;;;;;;5049080;28;20475;-76
2023/07/09 01:42:10;;;;;;;11.50;6.50;;;20.40;99.90;;;;;;5067418;28;20416;-78
2023/07/09 01:44:38;;;;;;;8.23;7.43;;;20.40;99.90;;;;;;5049066;28;20613;-75
2023/07/09 01:47:05;;;;;;;9.00;6.70;;;20.40;99.90;;;;;;5067568;28;20624;-78
2023/07/09 01:49:32;;;;;;;10.43;7.10;;;20.40;99.90;;;;;;5067146;28;20770;-78
2023/07/09 01:52:02;;;;;;;7.20;6.50;;;20.30;99.90;;;;;;5067675;28;20611;-75
2023/07/09 01:54:33;;;;;;;9.43;7.27;;;20.30;99.90;;;;;;5066865;28;20505;-75
2023/07/09 01:57:34;;;;;;;9.00;6.80;;;20.30;99.90;;;;;;5067001;28;20515;-75
2023/07/09 02:00:05;;;;;;;11.00;6.40;;;20.20;99.90;;;;;;5048965;28;20502;-76
2023/07/09 02:02:32;;;;;;;10.93;7.20;;;20.20;99.90;;;;;;5067325;28;20833;-78
2023/07/09 02:04:58;;;;;;;8.50;6.47;;;20.10;99.90;;;;;;5047820;28;20471;-75
2023/07/09 02:07:24;;;;;;;12.10;7.63;;;20.10;99.90;;;;;;5067065;28;20422;-78
2023/07/09 02:09:51;;;;;;;7.77;7.07;;;20.00;99.90;;;;;;5048254;28;20473;-78
2023/07/09 02:12:18;;;;;;;13.57;8.00;;;20.00;99.90;;;;;;5049178;28;20515;-77
2023/07/09 02:14:45;;;;;;;15.53;7.60;;;19.90;99.90;;;;;;5047674;28;20490;-75
2023/07/09 02:17:13;;;;;;;12.70;7.50;;;19.80;99.90;;;;;;5067109;28;20619;-74
2023/07/09 02:19:39;;;;;;;13.53;7.47;;;19.80;99.90;;;;;;5066301;28;20861;-74
2023/07/09 02:22:05;;;;;;;7.80;7.00;;;19.70;99.90;;;;;;5067012;28;20413;-78
2023/07/09 02:24:32;;;;;;;9.37;8.40;;;19.70;99.90;;;;;;5066483;28;20412;-77
2023/07/09 02:26:59;;;;;;;12.47;7.30;;;19.70;99.90;;;;;;5048437;28;20523;-77
2023/07/09 02:29:26;;;;;;;9.53;7.37;;;19.70;99.90;;;;;;5048307;28;20812;-77
2023/07/09 02:31:55;;;;;;;9.27;7.17;;;19.60;99.90;;;;;;5066001;28;20422;-77
2023/07/09 02:34:25;;;;;;;9.67;7.63;;;19.60;99.90;;;;;;5066119;28;20404;-74
2023/07/09 02:36:56;;;;;;;8.50;7.20;;;19.50;99.90;;;;;;5066456;28;20571;-77
2023/07/09 02:39:22;;;;;;;11.20;7.50;;;19.50;99.90;;;;;;5048133;28;20581;-74
2023/07/09 02:41:49;;;;;;;11.97;7.90;;;19.50;99.90;;;;;;5065670;28;20424;-74
2023/07/09 02:44:15;;;;;;;9.63;7.70;;;19.40;99.90;;;;;;5048487;28;20956;-74
2023/07/09 02:46:40;;;;;;;8.90;8.00;;;19.40;99.90;;;;;;5048007;28;20416;-74
2023/07/09 02:49:08;;;;;;;13.20;8.17;;;19.30;99.90;;;;;;5066205;28;20745;-77
2023/07/09 02:51:33;;;;;;;11.53;8.90;;;19.20;99.90;;;;;;5048256;28;20326;-78
2023/07/09 02:54:01;;;;;;;10.20;7.97;;;19.20;99.90;;;;;;5047805;28;20984;-75
2023/07/09 02:56:27;;;;;;;11.93;7.23;;;19.20;99.90;;;;;;5066004;28;20315;-74
2023/07/09 02:58:52;;;;;;;8.10;7.30;;;19.20;99.90;;;;;;5047921;28;20506;-74
2023/07/09 03:01:24;;;;;;;16.00;8.10;;;19.10;99.90;;;;;;5065833;28;20644;-74
2023/07/09 03:03:57;;;;;;;12.90;7.93;;;19.10;99.90;;;;;;5065867;28;20176;-77
2023/07/09 03:06:24;;;;;;;9.03;7.60;;;19.10;99.90;;;;;;5047660;28;20839;-77
2023/07/09 03:08:51;;;;;;;11.93;8.17;;;19.10;99.90;;;;;;5065698;28;20430;-77
2023/07/09 03:11:17;;;;;;;12.47;7.57;;;19.10;99.90;;;;;;5065626;28;20444;-74
2023/07/09 03:13:43;;;;;;;13.13;7.33;;;19.10;99.90;;;;;;5065832;28;20706;-77
2023/07/09 03:16:09;;;;;;;14.80;8.17;;;19.10;99.90;;;;;;5046066;28;20499;-74
2023/07/09 03:18:35;;;;;;;11.07;7.93;;;19.10;99.90;;;;;;5047581;28;20415;-75
2023/07/09 03:21:01;;;;;;;11.20;7.90;;;19.00;99.90;;;;;;5065171;28;20753;-77
2023/07/09 03:23:27;;;;;;;13.27;8.27;;;19.00;99.90;;;;;;5066084;28;20281;-76
2023/07/09 03:25:53;;;;;;;11.17;8.53;;;19.00;99.90;;;;;;5065004;28;20716;-77
2023/07/09 03:28:18;;;;;;;12.10;8.20;;;18.90;99.90;;;;;;5047894;28;20443;-77
2023/07/09 03:30:48;;;;;;;9.37;8.43;;;18.90;99.90;;;;;;5065146;28;20266;-76
2023/07/09 03:33:16;;;;;;;10.53;9.07;;;18.90;99.90;;;;;;5066164;28;20197;-77
2023/07/09 03:35:42;;;;;;;8.67;7.70;;;18.90;99.90;;;;;;5046934;28;20493;-74
2023/07/09 03:38:10;;;;;;;9.30;7.87;;;19.00;99.90;;;;;;5065644;28;20431;-77
2023/07/09 03:40:37;;;;;;;14.50;8.90;;;19.00;99.90;;;;;;5046908;28;20440;-75
2023/07/09 03:43:03;;;;;;;11.97;8.37;;;19.00;99.90;;;;;;5065069;28;20788;-74
2023/07/09 03:45:30;;;;;;;8.83;7.90;;;19.10;99.90;;;;;;5065252;28;20521;-74
2023/07/09 03:47:56;;;;;;;8.53;7.70;;;19.10;99.90;;;;;;5065289;28;20781;-75
2023/07/09 03:50:22;;;;;;;9.53;7.47;;;19.10;99.90;;;;;;5063320;28;20432;-74
2023/07/09 03:52:48;;;;;;;11.00;8.10;;;19.20;99.90;;;;;;5065713;28;20193;-75
2023/07/09 03:55:14;;;;;;;8.17;7.00;;;19.20;99.90;;;;;;5064966;28;20468;-74
2023/07/09 03:57:39;;;;;;;10.67;7.93;;;19.30;99.90;;;;;;5065354;28;20473;-77
2023/07/09 04:00:10;;;;;;;19.17;8.27;;;19.20;99.90;;;;;;5064455;28;20442;-75
2023/07/09 04:02:36;;;;;;;22.10;8.90;;;19.30;99.90;;;;;;5036478;28;20187;-75
2023/07/09 04:05:02;;;;;;;19.73;8.43;;;19.30;99.90;;;;;;5035555;28;20452;-75
2023/07/09 04:07:28;;;;;;;20.50;9.20;;;19.40;99.90;;;;;;5035943;28;20574;-75
2023/07/09 04:09:54;;;;;;;17.90;8.47;;;19.40;99.90;;;;;;5038060;28;20488;-77
2023/07/09 04:12:19;;;;;;;13.23;8.13;;;19.50;99.90;;;;;;5034349;28;20186;-77
2023/07/09 04:14:45;;;;;;;12.90;8.40;;;19.50;99.90;;;;;;5046381;28;20213;-75
2023/07/09 04:17:11;;;;;;;13.30;8.83;;;19.60;99.90;;;;;;5053434;28;20758;-74
2023/07/09 04:19:36;;;;;;;11.00;8.10;;;19.60;99.90;;;;;;5051443;28;20215;-77
2023/07/09 04:22:02;;;;;;;9.60;8.60;;;19.70;99.90;;;;;;5053185;28;20271;-75
2023/07/09 04:24:29;;;;;;;10.60;8.20;;;19.80;99.90;;;;;;5058851;28;20219;-74
2023/07/09 04:26:56;;;;;;;8.00;7.20;;;19.80;99.90;;;;;;5057816;28;20292;-75
2023/07/09 04:29:23;;;;;;;17.80;8.33;;;19.80;99.90;;;;;;5063515;28;20413;-74
2023/07/09 04:31:49;;;;;;;16.40;8.40;;;19.90;99.90;;;;;;5046527;28;20453;-75
2023/07/09 04:34:14;;;;;;;10.60;7.43;;;19.90;99.90;;;;;;5064782;28;20412;-77
2023/07/09 04:36:40;;;;;;;9.33;7.87;;;20.00;99.90;;;;;;5065797;28;21011;-77
2023/07/09 04:39:06;;;;;;;12.37;7.73;;;20.10;99.90;;;;;;5065937;28;20188;-75
2023/07/09 04:41:31;;;;;;;9.07;7.80;;;20.20;99.90;;;;;;5065687;28;20224;-78
2023/07/09 04:43:57;;;;;;;9.80;8.00;;;20.20;99.90;;;;;;5065043;28;20172;-76
2023/07/09 04:46:23;;;;;;;8.73;7.90;;;20.40;99.90;;;;;;5065206;28;20231;-75
2023/07/09 04:48:48;;;;;;;8.30;7.50;;;20.40;99.90;;;;;;5047090;28;20242;-77
2023/07/09 04:51:14;;;;;;;8.07;7.30;;;20.60;99.90;;;;;;5064990;28;20754;-77
2023/07/09 04:53:40;;;;;;;8.40;7.60;;;20.70;99.90;;;;;;5065343;28;20260;-77
2023/07/09 04:56:06;;;;;;;11.70;7.87;;;20.70;99.90;;;;;;5048486;28;20726;-77
2023/07/09 04:58:32;;;;;;;8.13;7.43;;;20.80;99.90;;;;;;5067662;28;20405;-76
2023/07/09 05:00:58;;;;;;;11.27;7.73;;;20.90;99.90;;;;;;5067837;28;20276;-78
2023/07/09 05:03:24;;;;;;;11.13;7.87;;;20.90;99.90;;;;;;5050640;28;20176;-75
2023/07/09 05:05:50;;;;;;;7.50;6.70;;;21.00;99.90;;;;;;5067668;28;20433;-77
2023/07/09 05:08:16;;;;;;;7.07;6.30;;;21.10;99.90;;;;;;5068319;28;20481;-75
2023/07/09 05:10:49;;;;;;;8.00;6.93;;;21.20;99.90;;;;;;5048627;28;20453;-78
2023/07/09 05:13:16;;;;;;;7.93;6.77;;;21.40;99.90;;;;;;5050615;28;20433;-77
2023/07/09 05:15:44;;;;;;;6.97;5.70;;;21.40;99.90;;;;;;5067882;28;20437;-75
2023/07/09 05:18:10;;;;;;;6.87;5.73;;;21.60;99.90;;;;;;5065728;28;20526;-75
2023/07/09 05:20:37;;;;;;;7.10;6.00;;;21.70;99.90;;;;;;5048342;28;20433;-75
2023/07/09 05:23:03;;;;;;;6.03;5.53;;;21.80;99.90;;;;;;5068322;28;20429;-77
2023/07/09 05:25:28;;;;;;;9.67;6.40;;;21.90;99.90;;;;;;5067594;28;20885;-75
2023/07/09 05:27:54;;;;;;;8.63;5.70;;;22.10;99.90;;;;;;5067822;28;20414;-76
2023/07/09 05:30:20;;;;;;;9.07;5.60;;;22.20;99.90;;;;;;5067196;28;20669;-77
2023/07/09 05:32:46;;;;;;;8.03;5.87;;;22.30;99.90;;;;;;5049670;28;20273;-77
2023/07/09 05:35:13;;;;;;;6.13;5.30;;;22.50;99.90;;;;;;5049536;28;20517;-75
2023/07/09 05:37:39;;;;;;;8.53;5.87;;;22.60;99.90;;;;;;5067960;28;20465;-78
2023/07/09 05:40:06;;;;;;;5.83;5.23;;;22.70;99.90;;;;;;5048714;28;20965;-77
2023/07/09 05:42:32;;;;;;;7.10;5.43;;;22.90;99.90;;;;;;5047575;28;20202;-75
2023/07/09 05:44:58;;;;;;;7.63;5.87;;;23.00;99.90;;;;;;5065292;28;20427;-75
2023/07/09 05:47:25;;;;;;;5.83;5.33;;;23.20;99.90;;;;;;5066295;28;20227;-77
2023/07/09 05:49:51;;;;;;;7.47;5.10;;;23.30;99.90;;;;;;5065074;28;20422;-77
2023/07/09 05:52:18;;;;;;;9.37;4.50;;;23.40;99.90;;;;;;5065559;28;20517;-77
2023/07/09 05:54:43;;;;;;;5.90;4.53;;;23.60;99.90;;;;;;5047348;28;20230;-76
2023/07/09 05:57:10;;;;;;;5.27;4.77;;;23.70;99.90;;;;;;5067126;28;20509;-75
2023/07/09 05:59:36;;;;;;;6.93;4.90;;;23.80;99.90;;;;;;5067090;28;20222;-77
2023/07/09 06:02:03;;;;;;;7.73;4.40;;;24.00;99.90;;;;;;5066950;28;20790;-75
2023/07/09 06:04:30;;;;;;;6.47;4.77;;;24.20;99.70;;;;;;5066689;28;20423;-76
2023/07/09 06:06:56;;;;;;;5.70;4.83;;;24.30;99.60;;;;;;5067369;28;20428;-75
2023/07/09 06:09:22;;;;;;;4.90;4.50;;;24.40;99.40;;;;;;5048838;28;20421;-78
2023/07/09 06:11:48;;;;;;;4.80;4.40;;;24.60;99.30;;;;;;5048641;28;20958;-76
2023/07/09 06:14:16;;;;;;;5.03;3.87;;;24.70;98.80;;;;;;5048971;28;20488;-76
2023/07/09 06:16:43;;;;;;;8.13;5.13;;;24.80;98.20;;;;;;5048687;28;20705;-75
2023/07/09 06:19:09;;;;;;;5.23;4.17;;;24.90;98.20;;;;;;5066480;28;20432;-77
2023/07/09 06:21:35;;;;;;;4.50;3.90;;;25.10;97.80;;;;;;5065872;28;20914;-75
2023/07/09 06:24:01;;;;;;;5.47;3.70;;;25.20;97.60;;;;;;5049138;28;20685;-75
2023/07/09 06:26:26;;;;;;;5.03;4.53;;;25.30;97.40;;;;;;5066520;28;20437;-77
2023/07/09 06:28:52;;;;;;;5.53;4.20;;;25.50;97.60;;;;;;5066665;28;20569;-78
2023/07/09 06:31:20;;;;;;;7.20;4.40;;;25.60;97.00;;;;;;5048070;28;20572;-77
2023/07/09 06:33:47;;;;;;;5.93;4.73;;;25.70;96.50;;;;;;5048963;28;20812;-77
2023/07/09 06:36:13;;;;;;;4.47;4.13;;;25.90;96.50;;;;;;5066335;28;20558;-77
2023/07/09 06:38:38;;;;;;;4.43;4.13;;;26.00;96.20;;;;;;5048480;28;20441;-75
2023/07/09 06:41:04;;;;;;;5.20;4.20;;;26.10;96.40;;;;;;5065985;28;20225;-75
2023/07/09 06:43:31;;;;;;;5.03;4.30;;;26.20;96.10;;;;;;5048057;28;20381;-77
2023/07/09 06:46:01;;;;;;;4.90;4.40;;;26.30;96.00;;;;;;5065653;28;20433;-77
2023/07/09 06:48:28;;;;;;;5.77;4.57;;;26.40;95.30;;;;;;5066257;28;20613;-76
2023/07/09 06:50:57;;;;;;;5.50;4.13;;;26.60;95.20;;;;;;5065453;28;20461;-77
2023/07/09 06:53:23;;;;;;;6.97;4.90;;;26.70;95.40;;;;;;5065863;28;20451;-77
2023/07/09 06:55:49;;;;;;;4.70;4.00;;;26.80;95.30;;;;;;5065453;28;20468;-78
2023/07/09 06:58:18;;;;;;;5.53;4.57;;;26.80;95.70;;;;;;5048141;28;20550;-77
2023/07/09 07:00:45;;;;;;;6.07;3.70;;;26.90;95.70;;;;;;5065759;28;20472;-78
2023/07/09 07:03:11;;;;;;;6.00;4.50;;;27.00;95.30;;;;;;5066579;28;20432;-76
2023/07/09 07:05:37;;;;;;;4.20;3.83;;;27.10;94.40;;;;;;5047552;28;20438;-76
2023/07/09 07:08:03;;;;;;;4.67;3.93;;;27.20;93.20;;;;;;5048184;28;20414;-75
2023/07/09 07:10:30;;;;;;;4.67;4.27;;;27.30;93.00;;;;;;5065467;28;20279;-75
2023/07/09 07:12:56;;;;;;;7.20;4.17;;;27.40;92.60;;;;;;5065788;28;20398;-76
2023/07/09 07:15:22;;;;;;;5.77;4.50;;;27.50;92.20;;;;;;5047377;28;20432;-75
2023/07/09 07:17:48;;;;;;;4.50;4.10;;;27.60;92.90;;;;;;5065664;28;20466;-76
2023/07/09 07:20:15;;;;;;;4.80;4.37;;;27.70;92.20;;;;;;5065696;28;20630;-76
2023/07/09 07:22:41;;;;;;;6.30;4.43;;;27.80;92.80;;;;;;5065453;28;20552;-75
2023/07/09 07:25:07;;;;;;;4.50;4.10;;;27.90;91.80;;;;;;5064305;28;20426;-75
2023/07/09 07:27:34;;;;;;;5.63;4.13;;;28.00;90.90;;;;;;5047609;28;20642;-77
2023/07/09 07:30:00;;;;;;;6.67;3.90;;;28.00;89.90;;;;;;5065196;28;20520;-76
2023/07/09 07:32:26;;;;;;;4.70;4.30;;;28.10;90.50;;;;;;5065489;28;20422;-78
2023/07/09 07:34:51;;;;;;;6.03;4.47;;;28.10;91.10;;;;;;5065231;28;20936;-78
2023/07/09 07:37:20;;;;;;;6.40;4.10;;;28.30;89.60;;;;;;5047547;28;20217;-80
2023/07/09 07:39:47;;;;;;;4.50;3.70;;;28.30;88.80;;;;;;5065412;28;20203;-76
2023/07/09 07:42:13;;;;;;;4.73;4.33;;;28.30;92.00;;;;;;5047291;28;20422;-76
2023/07/09 07:44:39;;;;;;;4.33;3.93;;;28.30;91.30;;;;;;5046765;28;20494;-75
2023/07/09 07:47:05;;;;;;;5.93;4.10;;;28.30;92.10;;;;;;5065497;28;20537;-80
2023/07/09 07:49:31;;;;;;;4.40;4.00;;;28.40;92.20;;;;;;5065176;28;20563;-81
2023/07/09 07:51:57;;;;;;;4.93;4.30;;;28.50;89.70;;;;;;5065314;28;20524;-83
2023/07/09 07:54:23;;;;;;;4.47;4.07;;;28.60;88.80;;;;;;5047044;28;21000;-81
2023/07/09 07:56:48;;;;;;;4.40;4.00;;;28.60;91.40;;;;;;5065123;28;20368;-81
2023/07/09 07:59:15;;;;;;;4.07;3.77;;;28.70;86.70;;;;;;5065370;28;20177;-75
2023/07/09 08:01:40;;;;;;;4.20;3.80;;;28.80;85.60;;;;;;5047243;28;20367;-83
2023/07/09 08:04:06;;;;;;;4.93;3.77;;;28.70;90.90;;;;;;5066547;28;20409;-81
2023/07/09 08:06:32;;;;;;;4.90;4.40;;;28.80;87.00;;;;;;5069678;28;20204;-83
2023/07/09 08:08:58;;;;;;;3.90;3.60;;;28.90;85.30;;;;;;5069810;28;20644;-81
2023/07/09 08:11:24;;;;;;;3.57;3.27;;;29.00;85.50;;;;;;5050920;28;20196;-75
2023/07/09 08:13:50;;;;;;;5.20;4.27;;;29.10;85.20;;;;;;5051758;28;20425;-75
2023/07/09 08:16:16;;;;;;;9.70;4.90;;;29.20;85.80;;;;;;5068043;28;20639;-75
2023/07/09 08:18:42;;;;;;;4.70;3.93;;;29.20;85.10;;;;;;5068469;28;20943;-75
2023/07/09 08:21:09;;;;;;;4.00;3.70;;;29.30;85.00;;;;;;5069269;28;20442;-75
2023/07/09 08:23:35;;;;;;;4.67;4.27;;;29.40;85.10;;;;;;5069204;28;20178;-82
2023/07/09 08:26:03;;;;;;;4.40;4.00;;;29.50;84.40;;;;;;5050547;28;20467;-74
2023/07/09 08:28:30;;;;;;;4.40;4.00;;;29.50;84.80;;;;;;5049626;28;20606;-82
2023/07/09 08:30:56;;;;;;;6.40;4.00;;;29.70;84.70;;;;;;5048814;28;20437;-75
2023/07/09 08:33:23;;;;;;;7.30;4.07;;;29.70;85.70;;;;;;5067058;28;20508;-76
2023/07/09 08:35:50;;;;;;;5.87;4.50;;;29.80;84.10;;;;;;5048603;28;20450;-82
2023/07/09 08:38:16;;;;;;;5.27;3.63;;;29.90;84.60;;;;;;5067035;28;20468;-82
2023/07/09 08:40:49;;;;;;;4.00;3.70;;;29.90;87.30;;;;;;5066725;28;20817;-82
2023/07/09 08:43:26;;;;;;;4.90;4.50;;;29.90;89.40;;;;;;5067717;28;20397;-76
2023/07/09 08:46:34;;;;;;;5.60;4.80;;;29.90;90.40;;;;;;5067523;28;20477;-82
2023/07/09 08:49:02;;;;;;;4.77;4.47;;;29.90;90.70;;;;;;5057672;28;20443;-83
2023/07/09 08:51:40;;;;;;;5.07;4.57;;;29.90;90.00;;;;;;5068339;28;20494;-76
2023/07/09 08:54:21;;;;;;;8.30;4.27;;;29.90;86.60;;;;;;5050363;28;20467;-82
2023/07/09 08:56:49;;;;;;;4.73;4.33;;;30.00;90.00;;;;;;5068400;28;20522;-83
2023/07/09 08:59:17;;;;;;;4.57;3.83;;;30.10;86.60;;;;;;5050045;28;20408;-83
2023/07/09 09:01:57;;;;;;;6.00;3.97;;;30.20;82.60;;;;;;5050299;28;20432;-75
2023/07/09 09:04:31;;;;;;;4.10;3.83;;;30.30;84.50;;;;;;5049938;28;20427;-82
2023/07/09 09:07:21;;;;;;;5.33;4.83;;;30.40;84.20;;;;;;5050142;28;20471;-82
2023/07/09 09:09:58;;;;;;;4.60;4.20;;;30.50;83.40;;;;;;5067825;28;20440;-82
2023/07/09 09:12:55;;;;;;;5.70;4.47;;;30.60;82.60;;;;;;5050063;28;20449;-76
2023/07/09 09:15:22;;;;;;;5.23;4.20;;;30.60;82.20;;;;;;5066285;28;20863;-76
2023/07/09 09:17:52;;;;;;;5.70;4.13;;;30.70;82.60;;;;;;5049762;28;20618;-81
2023/07/09 09:20:23;;;;;;;4.63;4.23;;;30.70;83.50;;;;;;5067650;28;20468;-75
2023/07/09 09:23:16;;;;;;;4.70;4.37;;;30.80;85.10;;;;;;5068278;28;20409;-82
2023/07/09 09:25:49;;;;;;;5.03;4.53;;;30.80;85.70;;;;;;5049513;28;20594;-82
2023/07/09 09:28:15;;;;;;;4.87;4.47;;;30.70;88.30;;;;;;5049961;28;20413;-75
2023/07/09 09:30:40;;;;;;;4.63;4.13;;;30.70;87.90;;;;;;5067276;28;21192;-82
2023/07/09 09:33:13;;;;;;;3.93;3.63;;;30.70;89.30;;;;;;5066915;28;20534;-76
2023/07/09 09:35:43;;;;;;;4.47;4.03;;;30.80;86.30;;;;;;5067224;28;20280;-81
2023/07/09 09:38:16;;;;;;;4.53;4.13;;;30.90;82.00;;;;;;5049889;28;20867;-83
2023/07/09 09:40:42;;;;;;;11.80;5.20;;;31.10;80.90;;;;;;5049490;28;20517;-75
2023/07/09 09:43:23;;;;;;;4.90;4.00;;;31.20;82.90;;;;;;5067656;28;20410;-80
2023/07/09 09:45:50;;;;;;;8.00;4.00;;;31.20;80.50;;;;;;5066787;28;20204;-81
2023/07/09 09:48:20;;;;;;;5.00;4.60;;;31.20;82.80;;;;;;5067547;28;20424;-76
2023/07/09 09:50:47;;;;;;;5.90;4.60;;;31.30;80.30;;;;;;5049114;28;20802;-82
2023/07/09 09:53:21;;;;;;;4.50;4.10;;;31.30;79.80;;;;;;5067654;28;20909;-82
2023/07/09 09:55:49;;;;;;;5.87;4.60;;;31.40;82.80;;;;;;5049062;28;20671;-82
2023/07/09 09:58:16;;;;;;;8.00;5.33;;;31.40;81.50;;;;;;5067222;28;20466;-82
2023/07/09 10:00:49;;;;;;;6.10;5.07;;;31.50;81.80;;;;;;5066623;28;20705;-76
2023/07/09 10:03:15;;;;;;;4.80;4.30;;;31.50;80.50;;;;;;5067392;28;20459;-83
2023/07/09 10:05:56;;;;;;;5.20;4.70;;;31.50;81.90;;;;;;5066738;28;20438;-82
2023/07/09 10:08:37;;;;;;;5.27;4.80;;;31.60;79.30;;;;;;5067589;28;20196;-75
2023/07/09 10:11:26;;;;;;;4.83;4.43;;;31.60;80.90;;;;;;5048817;28;20533;-76
2023/07/09 10:13:55;;;;;;;5.20;4.80;;;31.60;80.50;;;;;;5048987;28;20475;-76
2023/07/09 10:16:43;;;;;;;5.23;4.83;;;31.60;83.30;;;;;;5066534;28;20476;-82
2023/07/09 10:19:29;;;;;;;5.10;4.70;;;31.40;86.00;;;;;;5048780;28;20414;-76
2023/07/09 10:22:05;;;;;;;5.07;4.67;;;31.40;83.80;;;;;;5067290;28;20420;-76
2023/07/09 10:24:37;;;;;;;5.03;4.50;;;31.40;83.50;;;;;;5066411;28;20397;-82
2023/07/09 10:27:17;;;;;;;4.83;4.43;;;31.40;85.40;;;;;;5047708;28;20579;-82
2023/07/09 10:29:53;;;;;;;5.00;4.70;;;31.40;86.50;;;;;;5066665;28;20418;-83
2023/07/09 10:32:27;;;;;;;4.90;4.50;;;31.30;86.70;;;;;;5048869;28;20430;-82
2023/07/09 10:35:12;;;;;;;6.03;4.80;;;31.30;88.00;;;;;;5046883;28;20557;-76
2023/07/09 10:37:44;;;;;;;4.60;4.30;;;31.30;84.10;;;;;;5066929;28;21033;-83
2023/07/09 10:40:17;;;;;;;6.03;4.20;;;31.30;84.60;;;;;;5066288;28;20430;-83
2023/07/09 10:42:48;;;;;;;5.00;4.50;;;31.50;83.90;;;;;;5066332;28;20920;-76
2023/07/09 10:45:28;;;;;;;5.10;4.60;;;31.40;80.90;;;;;;5066212;28;20462;-82
2023/07/09 10:48:03;;;;;;;5.23;4.73;;;31.50;84.00;;;;;;5048128;28;20417;-76
2023/07/09 10:50:44;;;;;;;4.90;4.37;;;31.50;85.30;;;;;;5065836;28;20463;-82
2023/07/09 10:53:36;;;;;;;5.00;4.57;;;31.50;85.20;;;;;;5048583;28;20501;-82
2023/07/09 10:56:17;;;;;;;7.10;4.90;;;31.50;85.40;;;;;;5037075;28;20446;-76
2023/07/09 10:59:05;;;;;;;4.93;4.53;;;31.60;79.20;;;;;;5066073;28;20545;-75
2023/07/09 11:01:36;;;;;;;6.40;4.47;;;31.70;78.40;;;;;;5047968;28;20446;-83
2023/07/09 11:04:11;;;;;;;5.33;4.70;;;31.80;77.30;;;;;;5066011;28;20412;-82
2023/07/09 11:06:43;;;;;;;4.53;4.20;;;31.90;77.00;;;;;;5066157;28;20437;-83
2023/07/09 11:09:30;;;;;;;8.53;4.50;;;31.80;83.00;;;;;;5047675;28;20406;-76
2023/07/09 11:11:59;;;;;;;5.40;4.67;;;31.60;80.90;;;;;;5066318;28;20734;-82
2023/07/09 11:14:40;;;;;;;5.23;4.77;;;31.70;78.80;;;;;;5048019;28;20409;-82
2023/07/09 11:17:14;;;;;;;5.47;4.97;;;31.90;80.80;;;;;;5065997;28;20982;-82
2023/07/09 11:19:46;;;;;;;5.03;4.63;;;31.80;82.80;;;;;;5047405;28;20457;-76
2023/07/09 11:22:35;;;;;;;4.07;3.77;;;31.80;85.10;;;;;;5066333;28;20685;-82
2023/07/09 11:25:13;;;;;;;5.67;4.53;;;31.80;82.70;;;;;;5065557;28;20685;-82
2023/07/09 11:27:50;;;;;;;4.80;4.50;;;31.90;84.10;;;;;;5066146;28;20715;-75
2023/07/09 11:30:22;;;;;;;4.97;4.57;;;32.00;85.30;;;;;;5047473;28;20486;-82
2023/07/09 11:32:59;;;;;;;4.37;3.90;;;31.90;84.70;;;;;;5047659;28;20455;-76
2023/07/09 11:35:27;;;;;;;5.30;4.63;;;32.10;78.60;;;;;;5064275;28;20439;-75
2023/07/09 11:37:54;;;;;;;5.67;4.40;;;32.10;80.10;;;;;;5065236;28;20464;-82
2023/07/09 11:40:21;;;;;;;4.37;4.07;;;32.10;82.00;;;;;;5065236;28;20421;-81
2023/07/09 11:42:55;;;;;;;6.00;4.43;;;32.20;80.60;;;;;;5047755;28;20461;-75
2023/07/09 11:45:47;;;;;;;4.93;4.63;;;32.20;78.60;;;;;;5065030;28;20418;-76
2023/07/09 11:48:34;;;;;;;4.67;4.33;;;32.20;83.80;;;;;;5061687;28;20430;-82
2023/07/09 11:51:14;;;;;;;7.40;4.97;;;32.20;83.70;;;;;;5047338;28;20524;-76
2023/07/09 11:53:54;;;;;;;8.77;5.07;;;32.30;76.40;;;;;;5047176;28;20446;-83
2023/07/09 11:56:21;;;;;;;6.10;4.70;;;32.30;83.50;;;;;;5047200;28;20437;-76
2023/07/09 11:58:56;;;;;;;5.30;4.53;;;32.30;83.70;;;;;;5065588;28;20810;-76
2023/07/09 12:01:43;;;;;;;4.93;4.43;;;32.20;85.50;;;;;;5064902;28;20995;-76
2023/07/09 12:04:17;;;;;;;5.23;4.47;;;32.20;84.90;;;;;;5047091;28;20417;-82
2023/07/09 12:06:44;;;;;;;5.10;4.60;;;32.20;84.50;;;;;;5046517;28;20487;-82
2023/07/09 12:09:17;;;;;;;5.53;5.03;;;32.30;82.60;;;;;;5065303;28;20410;-76
2023/07/09 12:11:48;;;;;;;4.87;4.37;;;32.30;84.50;;;;;;5065023;28;21047;-82
2023/07/09 12:14:17;;;;;;;5.53;5.03;;;32.10;83.10;;;;;;5047335;28;20824;-82
2023/07/09 12:16:49;;;;;;;5.20;4.70;;;32.20;75.10;;;;;;5047117;28;20473;-76
2023/07/09 12:19:21;;;;;;;5.50;5.00;;;32.30;79.00;;;;;;5064804;28;20410;-76
2023/07/09 12:21:53;;;;;;;5.67;5.10;;;32.20;79.90;;;;;;5046892;28;20448;-81
2023/07/09 12:24:28;;;;;;;6.40;5.90;;;32.20;78.10;;;;;;5046782;28;20425;-76
2023/07/09 12:26:58;;;;;;;7.50;5.20;;;32.20;80.50;;;;;;5065192;28;20948;-76
2023/07/09 12:29:25;;;;;;;5.40;5.00;;;32.10;79.40;;;;;;5065073;28;20753;-82
2023/07/09 12:31:51;;;;;;;5.20;4.73;;;32.10;82.20;;;;;;5046747;28;20525;-76
2023/07/09 12:34:17;;;;;;;9.47;5.13;;;32.10;82.50;;;;;;5046842;28;20508;-75
2023/07/09 12:36:48;;;;;;;5.90;5.40;;;32.10;83.50;;;;;;5064961;28;20217;-82
2023/07/09 12:39:17;;;;;;;5.67;5.07;;;32.20;79.20;;;;;;5063915;28;20694;-82
2023/07/09 12:41:44;;;;;;;6.40;5.77;;;32.40;76.20;;;;;;5046765;28;20429;-82
2023/07/09 12:44:19;;;;;;;7.23;5.27;;;32.40;78.80;;;;;;5064998;28;20914;-76
2023/07/09 12:46:47;;;;;;;7.90;5.50;;;32.30;81.50;;;;;;5064432;28;20421;-77
2023/07/09 12:49:40;;;;;;;5.40;5.00;;;32.30;82.00;;;;;;5046575;28;20459;-76
2023/07/09 12:52:19;;;;;;;5.30;4.80;;;32.30;81.40;;;;;;5047607;28;20448;-82
2023/07/09 12:55:05;;;;;;;4.80;4.50;;;32.30;81.90;;;;;;5067862;28;20499;-81
2023/07/09 12:57:31;;;;;;;6.30;5.70;;;32.20;85.10;;;;;;5067953;28;20481;-75
2023/07/09 12:59:58;;;;;;;7.80;4.70;;;32.10;85.00;;;;;;5067934;28;20805;-75